Time;durP1;ratioP1;P1;durP2;ratioP2;P2;SDS_P1;SDS_P2;PMS_P1;PMS_P2;Temp;Humidity;BMP_temperature;BMP_pressure;BME280_temperature;BME280_humidity;BME280_pressure;Samples;Min_cycle;Max_cycle;Signal;HPM_P1;HPM_P2
2022/07/05 00:00:47;;;;;;;8.75;3.30;;;17.80;99.90;;;;;;5247826;28;20059;-72
2022/07/05 00:03:18;;;;;;;8.60;3.45;;;17.70;99.90;;;;;;5248006;28;20063;-72
2022/07/05 00:05:49;;;;;;;7.35;3.15;;;17.60;99.90;;;;;;5247846;28;20052;-75
2022/07/05 00:08:20;;;;;;;4.93;2.95;;;17.60;99.90;;;;;;5247745;28;20089;-74
2022/07/05 00:10:51;;;;;;;8.85;3.20;;;17.70;99.90;;;;;;5247799;28;20017;-72
2022/07/05 00:13:22;;;;;;;9.10;3.60;;;17.50;99.90;;;;;;5247585;28;20179;-76
2022/07/05 00:15:53;;;;;;;6.03;3.03;;;17.70;99.90;;;;;;5247631;28;20117;-74
2022/07/05 00:18:24;;;;;;;4.65;2.92;;;17.80;99.90;;;;;;5229563;28;20036;-71
2022/07/05 00:20:55;;;;;;;4.85;3.63;;;17.70;99.90;;;;;;5249791;28;20040;-76
2022/07/05 00:23:25;;;;;;;4.40;3.28;;;17.60;99.90;;;;;;5234057;28;20029;-75
2022/07/05 00:25:56;;;;;;;6.32;3.38;;;17.50;99.90;;;;;;5251849;28;20028;-72
2022/07/05 00:28:27;;;;;;;6.85;3.47;;;17.60;99.90;;;;;;5251561;28;20529;-71
2022/07/05 00:30:58;;;;;;;5.82;3.47;;;17.60;99.90;;;;;;5251559;28;20067;-77
2022/07/05 00:33:29;;;;;;;10.30;3.28;;;17.40;99.90;;;;;;5251780;28;20397;-72
2022/07/05 00:36:00;;;;;;;6.55;3.47;;;17.50;99.90;;;;;;5251667;28;20058;-75
2022/07/05 00:38:30;;;;;;;6.50;3.75;;;17.50;99.90;;;;;;5251536;28;20434;-76
2022/07/05 00:41:01;;;;;;;7.90;3.47;;;17.40;99.90;;;;;;5251562;28;20479;-75
2022/07/05 00:43:32;;;;;;;6.90;3.08;;;17.40;99.90;;;;;;5251681;28;20024;-72
2022/07/05 00:46:03;;;;;;;7.22;3.47;;;17.30;99.90;;;;;;5251423;28;20020;-76
2022/07/05 00:48:34;;;;;;;6.60;4.03;;;17.30;99.90;;;;;;5251302;28;20047;-77
2022/07/05 00:51:05;;;;;;;6.63;3.80;;;17.20;99.90;;;;;;5251486;28;20035;-77
2022/07/05 00:53:36;;;;;;;9.82;4.28;;;17.30;99.90;;;;;;5233404;28;20387;-74
2022/07/05 00:56:07;;;;;;;8.20;4.00;;;17.40;99.90;;;;;;5233372;28;20032;-76
2022/07/05 00:58:38;;;;;;;7.85;3.75;;;17.30;99.90;;;;;;5251180;28;20025;-76
2022/07/05 01:01:10;;;;;;;10.52;3.97;;;17.20;99.90;;;;;;5251022;28;20017;-77
2022/07/05 01:03:41;;;;;;;6.38;4.20;;;17.30;99.90;;;;;;5251135;28;20040;-72
2022/07/05 01:06:13;;;;;;;5.13;3.45;;;17.40;99.90;;;;;;5232995;28;20423;-76
2022/07/05 01:08:45;;;;;;;8.27;3.45;;;17.30;99.90;;;;;;5250915;28;20036;-72
2022/07/05 01:11:16;;;;;;;6.72;3.85;;;17.40;99.90;;;;;;5250843;28;20028;-72
2022/07/05 01:13:47;;;;;;;8.07;3.70;;;17.20;99.90;;;;;;5250849;28;20028;-71
2022/07/05 01:16:18;;;;;;;5.88;3.88;;;17.10;99.90;;;;;;5250901;28;20463;-77
2022/07/05 01:18:49;;;;;;;7.50;4.22;;;17.30;99.90;;;;;;5250832;28;20036;-77
2022/07/05 01:21:23;;;;;;;6.05;3.97;;;17.30;99.90;;;;;;5250436;28;20105;-77
2022/07/05 01:23:54;;;;;;;6.93;4.15;;;17.10;99.90;;;;;;5250732;28;20081;-75
2022/07/05 01:26:27;;;;;;;7.63;3.80;;;17.20;99.90;;;;;;5250626;28;20104;-77
2022/07/05 01:28:58;;;;;;;5.72;3.80;;;17.50;99.90;;;;;;5250617;28;20475;-73
2022/07/05 01:31:29;;;;;;;6.72;4.18;;;17.40;99.90;;;;;;5249830;28;20017;-75
2022/07/05 01:34:00;;;;;;;11.32;4.80;;;17.20;99.90;;;;;;5250451;28;20028;-75
2022/07/05 01:36:31;;;;;;;13.15;5.32;;;17.40;99.90;;;;;;5250445;28;20476;-73
2022/07/05 01:39:04;;;;;;;8.88;5.40;;;17.40;99.90;;;;;;5250319;28;20082;-72
2022/07/05 01:41:36;;;;;;;10.48;4.35;;;17.50;99.90;;;;;;5232374;28;20024;-76
2022/07/05 01:44:07;;;;;;;11.20;4.75;;;17.50;99.90;;;;;;5250184;28;20033;-74
2022/07/05 01:46:39;;;;;;;11.52;5.28;;;17.60;99.90;;;;;;5250343;28;20017;-74
2022/07/05 01:49:13;;;;;;;9.15;4.75;;;17.70;99.90;;;;;;5249965;28;20044;-76
2022/07/05 01:52:02;;;;;;;9.13;5.28;;;17.80;99.90;;;;;;5250178;28;20032;-75
2022/07/05 01:54:33;;;;;;;9.80;5.78;;;17.70;99.90;;;;;;5250040;28;20024;-77
2022/07/05 01:57:05;;;;;;;13.10;4.93;;;18.00;99.90;;;;;;5250244;28;20036;-76
2022/07/05 01:59:37;;;;;;;13.13;5.40;;;17.90;99.90;;;;;;5250046;28;20044;-77
2022/07/05 02:02:08;;;;;;;9.07;5.45;;;18.10;99.90;;;;;;5250106;28;20479;-73
2022/07/05 02:04:40;;;;;;;10.98;5.78;;;18.30;99.90;;;;;;5250060;28;20021;-76
2022/07/05 02:07:11;;;;;;;13.30;5.07;;;18.40;99.90;;;;;;5250122;28;20028;-78
2022/07/05 02:09:42;;;;;;;7.18;4.80;;;18.40;99.90;;;;;;5249702;28;20495;-72
2022/07/05 02:12:13;;;;;;;11.18;5.50;;;18.40;99.90;;;;;;5249832;28;20460;-73
2022/07/05 02:14:43;;;;;;;11.93;5.80;;;18.40;99.90;;;;;;5231705;28;20031;-72
2022/07/05 02:17:14;;;;;;;7.03;5.32;;;18.20;99.90;;;;;;5249492;28;20033;-78
2022/07/05 02:19:45;;;;;;;12.98;5.85;;;18.10;99.90;;;;;;5249120;28;20043;-72
2022/07/05 02:22:16;;;;;;;9.75;5.72;;;18.20;99.90;;;;;;5249667;28;20055;-72
2022/07/05 02:24:47;;;;;;;10.30;5.55;;;18.10;99.90;;;;;;5249412;28;20028;-74
2022/07/05 02:27:18;;;;;;;12.30;5.57;;;18.30;99.90;;;;;;5249431;28;20020;-72
2022/07/05 02:29:49;;;;;;;11.63;6.03;;;18.20;99.90;;;;;;5249365;28;20028;-77
2022/07/05 02:32:19;;;;;;;14.07;5.32;;;18.20;99.90;;;;;;5249230;28;20036;-74
2022/07/05 02:34:50;;;;;;;11.95;5.47;;;18.40;99.90;;;;;;5249226;28;20422;-73
2022/07/05 02:37:21;;;;;;;10.60;5.80;;;18.20;99.90;;;;;;5249320;28;20533;-74
2022/07/05 02:39:52;;;;;;;7.15;5.32;;;18.40;99.90;;;;;;5248996;28;20033;-72
2022/07/05 02:42:23;;;;;;;13.60;5.82;;;18.50;99.90;;;;;;5249142;28;20017;-73
2022/07/05 02:44:54;;;;;;;11.90;6.13;;;18.40;99.90;;;;;;5249126;28;20388;-73
2022/07/05 02:47:25;;;;;;;11.90;5.55;;;18.20;99.90;;;;;;5248900;28;20059;-78
2022/07/05 02:49:57;;;;;;;7.65;5.43;;;18.50;99.90;;;;;;5248729;28;20028;-75
2022/07/05 02:52:28;;;;;;;9.45;5.25;;;18.70;99.90;;;;;;5231159;28;20067;-72
2022/07/05 02:54:59;;;;;;;11.82;5.18;;;18.40;99.90;;;;;;5248810;28;20115;-72
2022/07/05 02:57:30;;;;;;;9.25;5.30;;;18.60;99.90;;;;;;5248908;28;20633;-73
2022/07/05 03:00:01;;;;;;;12.63;5.38;;;18.50;99.90;;;;;;5248824;28;20086;-78
2022/07/05 03:02:32;;;;;;;8.18;4.95;;;18.70;99.90;;;;;;5248833;28;20460;-75
2022/07/05 03:05:03;;;;;;;10.93;4.82;;;18.70;99.90;;;;;;5248738;28;20422;-71
2022/07/05 03:07:34;;;;;;;12.65;5.38;;;18.80;99.90;;;;;;5248565;28;20020;-71
2022/07/05 03:10:05;;;;;;;17.92;5.30;;;18.80;99.90;;;;;;5248696;28;20111;-71
2022/07/05 03:12:36;;;;;;;11.55;5.68;;;18.90;99.90;;;;;;5248583;28;20063;-71
2022/07/05 03:15:08;;;;;;;8.82;4.60;;;19.00;99.90;;;;;;5248432;28;20422;-72
2022/07/05 03:17:39;;;;;;;10.02;5.28;;;19.00;99.90;;;;;;5248607;28;20074;-72
2022/07/05 03:20:10;;;;;;;15.48;5.40;;;19.10;99.90;;;;;;5248541;28;20768;-81
2022/07/05 03:22:41;;;;;;;22.88;6.10;;;19.10;99.90;;;;;;5248620;28;20033;-72
2022/07/05 03:25:12;;;;;;;11.02;6.05;;;19.10;99.90;;;;;;5248805;28;20074;-73
2022/07/05 03:27:43;;;;;;;13.02;5.28;;;19.20;99.90;;;;;;5248570;28;20063;-73
2022/07/05 03:30:13;;;;;;;9.23;5.22;;;19.30;99.90;;;;;;5248419;28;20047;-75
2022/07/05 03:32:44;;;;;;;11.32;5.32;;;19.40;99.90;;;;;;5248371;28;20005;-71
2022/07/05 03:35:15;;;;;;;9.95;4.75;;;19.50;99.90;;;;;;5247192;28;20029;-76
2022/07/05 03:37:46;;;;;;;17.60;5.30;;;19.70;99.90;;;;;;5247577;28;20008;-75
2022/07/05 03:40:17;;;;;;;11.77;4.85;;;19.70;99.90;;;;;;5248027;28;20031;-73
2022/07/05 03:42:48;;;;;;;8.85;4.53;;;20.00;99.90;;;;;;5248188;28;20135;-77
2022/07/05 03:45:19;;;;;;;9.77;4.68;;;20.10;99.90;;;;;;5248105;28;20024;-72
2022/07/05 03:47:49;;;;;;;11.75;4.80;;;20.00;99.90;;;;;;5247791;28;20345;-75
2022/07/05 03:50:20;;;;;;;11.43;4.80;;;20.20;99.90;;;;;;5248004;28;20036;-71
2022/07/05 03:52:51;;;;;;;9.93;4.85;;;20.20;99.90;;;;;;5248161;28;20023;-72
2022/07/05 03:55:22;;;;;;;12.30;4.85;;;20.20;99.90;;;;;;5247814;28;20039;-72
2022/07/05 03:57:53;;;;;;;8.35;4.50;;;20.60;99.90;;;;;;5248185;28;20032;-73
2022/07/05 04:00:23;;;;;;;11.25;4.28;;;20.60;99.90;;;;;;5247974;28;20009;-72
2022/07/05 04:02:54;;;;;;;15.70;4.25;;;20.90;99.90;;;;;;5248111;28;20029;-72
2022/07/05 04:05:25;;;;;;;8.52;4.10;;;20.90;99.90;;;;;;5247855;28;20028;-72
2022/07/05 04:07:56;;;;;;;7.43;3.72;;;21.00;99.90;;;;;;5248017;28;20384;-72
2022/07/05 04:10:27;;;;;;;5.97;3.20;;;21.30;99.90;;;;;;5247920;28;20024;-72
2022/07/05 04:12:58;;;;;;;9.77;3.70;;;21.40;99.90;;;;;;5248075;28;20091;-77
2022/07/05 04:15:29;;;;;;;9.27;3.60;;;21.40;99.90;;;;;;5247933;28;20028;-77
2022/07/05 04:18:00;;;;;;;10.52;3.95;;;21.50;99.90;;;;;;5247802;28;20032;-76
2022/07/05 04:20:31;;;;;;;10.40;3.38;;;21.50;99.90;;;;;;5247548;28;20048;-72
2022/07/05 04:23:02;;;;;;;7.38;3.60;;;21.80;99.90;;;;;;5247909;28;20360;-77
2022/07/05 04:25:33;;;;;;;8.93;4.03;;;21.80;99.90;;;;;;5247804;28;20029;-72
2022/07/05 04:28:04;;;;;;;9.38;4.35;;;22.20;99.90;;;;;;5247760;28;20106;-76
2022/07/05 04:30:35;;;;;;;13.77;4.60;;;22.20;99.90;;;;;;5247861;28;20082;-71
2022/07/05 04:33:06;;;;;;;7.88;3.40;;;22.20;99.90;;;;;;5247819;28;20464;-72
2022/07/05 04:35:36;;;;;;;11.68;3.90;;;22.20;99.90;;;;;;5247816;28;20042;-76
2022/07/05 04:38:07;;;;;;;9.65;3.40;;;22.30;99.90;;;;;;5247697;28;20020;-72
2022/07/05 04:40:38;;;;;;;6.82;3.58;;;22.40;99.90;;;;;;5247637;28;20025;-75
2022/07/05 04:43:09;;;;;;;9.75;3.65;;;22.70;99.90;;;;;;5247736;28;20464;-76
2022/07/05 04:45:40;;;;;;;14.15;3.47;;;22.60;99.90;;;;;;5247747;28;20035;-75
2022/07/05 04:48:11;;;;;;;8.40;3.42;;;22.60;99.90;;;;;;5247529;28;20066;-72
2022/07/05 04:50:41;;;;;;;5.82;3.00;;;22.80;99.90;;;;;;5247483;28;20039;-76
2022/07/05 04:53:12;;;;;;;7.15;3.45;;;23.00;99.90;;;;;;5247588;28;20095;-77
2022/07/05 04:55:43;;;;;;;10.60;3.60;;;23.10;99.90;;;;;;5247498;28;20024;-76
2022/07/05 04:58:14;;;;;;;8.23;3.10;;;23.30;99.90;;;;;;5247533;28;20478;-76
2022/07/05 05:00:45;;;;;;;10.65;3.17;;;23.00;99.90;;;;;;5247434;28;20055;-72
2022/07/05 05:03:15;;;;;;;6.60;2.85;;;23.10;99.90;;;;;;5247382;28;20028;-77
2022/07/05 05:05:46;;;;;;;8.90;2.72;;;23.20;99.90;;;;;;5247542;28;20055;-76
2022/07/05 05:08:17;;;;;;;6.38;3.13;;;23.20;99.90;;;;;;5250168;28;20044;-74
2022/07/05 05:10:48;;;;;;;9.82;2.90;;;23.10;99.90;;;;;;5251137;28;20021;-75
2022/07/05 05:13:19;;;;;;;8.27;3.20;;;23.20;99.90;;;;;;5251093;28;20017;-75
2022/07/05 05:15:50;;;;;;;11.15;3.20;;;23.20;99.90;;;;;;5251116;28;20029;-75
2022/07/05 05:18:24;;;;;;;4.90;2.80;;;23.00;99.90;;;;;;5250975;28;20455;-75
2022/07/05 05:20:55;;;;;;;9.32;2.95;;;23.30;99.90;;;;;;5250748;28;20049;-75
2022/07/05 05:23:26;;;;;;;6.97;2.33;;;23.40;99.90;;;;;;5251055;28;20056;-75
2022/07/05 05:25:57;;;;;;;9.73;2.90;;;23.60;99.90;;;;;;5250909;28;20020;-74
2022/07/05 05:28:27;;;;;;;10.05;2.38;;;23.90;99.90;;;;;;5250624;28;20032;-75
2022/07/05 05:30:58;;;;;;;4.03;2.40;;;23.60;99.90;;;;;;5250862;28;20023;-73
2022/07/05 05:33:29;;;;;;;10.00;2.85;;;23.60;99.90;;;;;;5250821;28;20025;-75
2022/07/05 05:36:01;;;;;;;4.78;2.60;;;23.60;99.90;;;;;;5250860;28;20021;-76
2022/07/05 05:38:32;;;;;;;6.80;2.53;;;23.80;99.90;;;;;;5250707;28;20055;-72
2022/07/05 05:41:03;;;;;;;11.02;2.60;;;23.80;99.90;;;;;;5250556;28;20021;-75
2022/07/05 05:43:34;;;;;;;4.22;2.47;;;23.80;99.90;;;;;;5250599;28;20070;-72
2022/07/05 05:59:22;;;;;;;7.20;2.58;;;24.20;99.90;;;;;;5308344;27;20447;-73
2022/07/05 06:01:53;;;;;;;6.22;2.35;;;24.60;99.90;;;;;;5308424;28;20031;-75
2022/07/05 06:04:24;;;;;;;10.02;2.60;;;24.80;99.90;;;;;;5308543;28;20055;-75
2022/07/05 06:06:54;;;;;;;6.78;2.35;;;25.00;99.90;;;;;;5308320;28;20023;-76
2022/07/05 06:09:25;;;;;;;7.25;2.42;;;25.00;99.90;;;;;;5308225;28;20036;-73
2022/07/05 06:11:56;;;;;;;5.43;2.40;;;25.00;99.90;;;;;;5289950;28;20023;-75
2022/07/05 06:14:27;;;;;;;9.30;2.25;;;24.60;99.90;;;;;;5308023;28;20027;-76
2022/07/05 06:16:58;;;;;;;7.82;2.75;;;24.70;99.90;;;;;;5308282;28;20023;-75
2022/07/05 06:19:28;;;;;;;7.38;2.70;;;25.10;99.90;;;;;;5299164;28;20065;-74
2022/07/05 06:21:59;;;;;;;8.25;2.30;;;25.00;99.90;;;;;;5308200;27;20028;-75
2022/07/05 06:24:30;;;;;;;12.32;2.60;;;25.20;99.90;;;;;;5308066;28;20051;-76
2022/07/05 06:27:01;;;;;;;10.93;2.50;;;24.80;99.90;;;;;;5308040;28;20106;-74
2022/07/05 06:29:32;;;;;;;8.13;2.20;;;24.90;99.90;;;;;;5306685;28;20132;-72
2022/07/05 06:32:03;;;;;;;4.10;1.88;;;25.20;99.90;;;;;;5307939;28;20030;-76
2022/07/05 06:34:34;;;;;;;5.00;2.00;;;25.20;99.90;;;;;;5307843;27;20077;-76
2022/07/05 06:37:05;;;;;;;7.97;2.20;;;25.40;99.90;;;;;;5307806;28;20028;-73
2022/07/05 06:39:36;;;;;;;4.38;1.73;;;25.30;99.90;;;;;;5307840;28;20031;-75
2022/07/05 06:42:07;;;;;;;10.63;2.47;;;25.40;99.90;;;;;;5308007;28;20542;-76
2022/07/05 06:44:38;;;;;;;8.95;2.50;;;25.30;99.90;;;;;;5307681;27;20110;-73
2022/07/05 06:47:09;;;;;;;10.55;2.53;;;25.40;99.90;;;;;;5307735;28;20040;-75
2022/07/05 06:49:40;;;;;;;6.45;1.88;;;25.40;99.90;;;;;;5306023;28;20363;-76
2022/07/05 06:52:11;;;;;;;5.65;2.00;;;25.40;99.90;;;;;;5306348;28;20026;-75
2022/07/05 06:54:42;;;;;;;7.28;2.38;;;25.80;99.90;;;;;;5306184;28;20082;-74
2022/07/05 06:57:12;;;;;;;4.75;2.42;;;25.90;99.90;;;;;;5307274;28;20118;-74
2022/07/05 06:59:43;;;;;;;7.93;1.90;;;25.70;99.90;;;;;;5296565;28;20040;-72
2022/07/05 07:02:14;;;;;;;4.47;1.95;;;25.90;99.90;;;;;;5293216;28;20034;-75
2022/07/05 07:04:47;;;;;;;6.28;2.13;;;25.80;99.90;;;;;;5293192;28;20371;-75
2022/07/05 07:10:07;;;;;;;4.85;2.13;;;25.90;99.90;;;;;;5292848;28;20050;-74
2022/07/05 07:12:38;;;;;;;8.43;2.10;;;25.90;99.90;;;;;;5292889;27;20036;-75
2022/07/05 07:15:09;;;;;;;7.43;2.55;;;26.10;99.90;;;;;;5293020;28;20020;-74
2022/07/05 07:17:40;;;;;;;3.92;1.88;;;26.00;99.90;;;;;;5291742;28;20063;-73
2022/07/05 07:20:11;;;;;;;6.57;2.13;;;25.80;99.90;;;;;;5292595;28;20043;-72
2022/07/05 07:22:42;;;;;;;10.23;2.60;;;26.00;99.90;;;;;;5291478;28;20451;-76
2022/07/05 07:25:13;;;;;;;5.95;2.17;;;26.20;99.90;;;;;;5292782;28;20050;-73
2022/07/05 07:27:45;;;;;;;8.80;1.95;;;25.80;99.90;;;;;;5292388;28;20134;-73
2022/07/05 07:30:18;;;;;;;6.50;1.90;;;26.00;99.90;;;;;;5292425;27;20102;-72
2022/07/05 07:32:49;;;;;;;8.00;2.08;;;26.20;99.90;;;;;;5291229;28;20084;-74
2022/07/05 07:35:21;;;;;;;6.45;2.00;;;26.30;99.90;;;;;;5291090;28;20526;-74
2022/07/05 07:37:52;;;;;;;9.57;2.67;;;26.40;99.90;;;;;;5292475;28;20026;-75
2022/07/05 07:40:23;;;;;;;5.60;2.28;;;26.50;99.90;;;;;;5292486;28;20458;-75
2022/07/05 07:42:54;;;;;;;5.47;2.00;;;26.60;99.90;;;;;;5291043;28;20031;-72
2022/07/05 07:45:26;;;;;;;7.05;2.17;;;26.80;99.90;;;;;;5290907;28;20031;-75
2022/07/05 07:47:57;;;;;;;4.60;2.45;;;26.50;99.90;;;;;;5292119;28;20035;-74
2022/07/05 07:50:28;;;;;;;6.38;2.00;;;26.50;99.90;;;;;;5292186;28;20359;-75
2022/07/05 07:52:59;;;;;;;4.57;2.22;;;26.50;99.90;;;;;;5292137;28;20102;-75
2022/07/05 07:55:30;;;;;;;4.72;2.00;;;26.50;99.90;;;;;;5292041;28;20066;-73
2022/07/05 07:58:01;;;;;;;6.30;2.42;;;26.70;99.90;;;;;;5291763;28;20048;-74
2022/07/05 08:00:32;;;;;;;4.97;1.95;;;26.90;99.90;;;;;;5291994;28;20371;-72
2022/07/05 08:03:03;;;;;;;5.03;2.20;;;26.80;99.90;;;;;;5291925;28;20023;-73
2022/07/05 08:05:34;;;;;;;10.15;2.20;;;26.90;99.90;;;;;;5291875;28;20055;-75
2022/07/05 08:08:05;;;;;;;8.40;1.90;;;27.20;99.90;;;;;;5291715;28;20372;-76
2022/07/05 08:10:36;;;;;;;6.95;2.05;;;27.30;99.90;;;;;;5289494;28;20027;-73
2022/07/05 08:13:07;;;;;;;5.03;2.20;;;27.10;99.90;;;;;;5291744;28;20075;-72
2022/07/05 08:15:37;;;;;;;6.93;2.30;;;27.20;99.90;;;;;;5291690;28;20528;-76
2022/07/05 08:23:47;;;;;;;3.85;2.13;;;27.50;99.90;;;;;;5291504;28;19953;-73
2022/07/05 08:26:18;;;;;;;6.00;2.08;;;27.40;99.90;;;;;;5291553;28;20035;-73
2022/07/05 08:28:49;;;;;;;6.00;2.10;;;27.50;99.90;;;;;;5291134;28;20417;-73
2022/07/05 08:31:20;;;;;;;5.38;2.47;;;27.40;99.90;;;;;;5291354;28;20020;-75
2022/07/05 08:33:51;;;;;;;6.38;2.22;;;27.40;99.90;;;;;;5291475;28;20459;-73
2022/07/05 08:36:22;;;;;;;7.93;2.50;;;27.60;99.90;;;;;;5291243;28;20015;-73
2022/07/05 08:38:53;;;;;;;5.15;2.28;;;27.80;99.90;;;;;;5291128;28;20110;-73
2022/07/05 08:41:24;;;;;;;4.35;1.80;;;27.80;99.90;;;;;;5291278;28;20114;-73
2022/07/05 08:43:57;;;;;;;8.35;2.03;;;28.00;99.90;;;;;;5291083;28;20032;-73
2022/07/05 08:46:31;;;;;;;6.07;2.13;;;27.80;99.90;;;;;;5291093;28;20080;-75
2022/07/05 08:49:06;;;;;;;6.38;2.47;;;27.90;99.90;;;;;;5290813;28;20390;-73
2022/07/05 08:51:38;;;;;;;6.18;2.40;;;27.90;99.90;;;;;;5290876;28;20020;-73
2022/07/05 08:54:11;;;;;;;7.75;2.42;;;28.00;99.90;;;;;;5290958;28;20016;-76
2022/07/05 08:56:43;;;;;;;7.63;2.50;;;28.20;99.90;;;;;;5290769;28;20023;-73
2022/07/05 08:59:14;;;;;;;8.75;2.63;;;28.00;99.90;;;;;;5290575;28;20051;-75
2022/07/05 09:01:47;;;;;;;8.13;2.47;;;27.80;99.90;;;;;;5290933;28;20027;-73
2022/07/05 09:04:19;;;;;;;8.07;2.80;;;28.00;99.90;;;;;;5290534;28;20110;-75
2022/07/05 09:06:53;;;;;;;6.78;2.28;;;27.60;99.90;;;;;;5290618;28;20467;-75
2022/07/05 09:09:25;;;;;;;7.35;2.47;;;27.60;99.90;;;;;;5290523;28;20030;-73
2022/07/05 09:11:56;;;;;;;5.10;2.10;;;28.30;99.90;;;;;;5290634;28;20034;-76
2022/07/05 09:14:27;;;;;;;4.53;2.30;;;28.00;99.90;;;;;;5290548;28;20115;-76
2022/07/05 09:16:58;;;;;;;7.53;2.67;;;27.80;99.90;;;;;;5290456;28;20107;-73
2022/07/05 09:19:31;;;;;;;7.80;2.60;;;28.30;99.90;;;;;;5733755;22;20049;-76
2022/07/05 09:22:08;;;;;;;10.43;2.60;;;28.10;99.90;;;;;;5206549;28;20021;-73
2022/07/05 09:24:45;;;;;;;3.67;2.22;;;28.00;99.90;;;;;;5207081;28;20108;-72
2022/07/05 09:27:16;;;;;;;4.15;2.33;;;27.80;99.90;;;;;;5205727;28;20068;-76
2022/07/05 09:29:57;;;;;;;4.30;2.50;;;28.40;99.90;;;;;;5207187;28;20029;-75
2022/07/05 09:32:30;;;;;;;7.00;2.30;;;28.00;99.90;;;;;;5207140;28;20033;-74
2022/07/05 09:35:20;;;;;;;7.90;2.42;;;28.40;99.90;;;;;;5207009;28;20017;-76
2022/07/05 09:37:51;;;;;;;;;;;27.90;99.90;;;;;;5207414;28;20057;-73
2022/07/05 09:40:22;;;;;;;8.20;2.60;;;28.60;99.90;;;;;;5206892;28;19912;-72
2022/07/05 09:43:09;;;;;;;7.82;2.58;;;28.20;99.90;;;;;;5207020;28;20381;-76
2022/07/05 09:45:49;;;;;;;7.97;2.25;;;28.70;99.90;;;;;;5207009;28;20025;-72
2022/07/05 09:48:20;;;;;;;7.25;2.60;;;28.10;99.90;;;;;;5206692;28;20428;-74
2022/07/05 09:50:52;;;;;;;5.25;2.30;;;28.40;99.90;;;;;;5206791;28;20025;-75
2022/07/05 09:53:22;;;;;;;6.32;2.00;;;28.20;99.90;;;;;;5205586;28;20020;-75
2022/07/05 09:56:04;;;;;;;5.90;2.83;;;28.80;99.90;;;;;;5206862;28;20025;-72
2022/07/05 09:58:35;;;;;;;5.70;2.33;;;28.30;99.90;;;;;;5206646;28;20030;-71
2022/07/05 10:01:26;;;;;;;7.18;2.55;;;28.30;99.90;;;;;;5205707;28;20479;-72
2022/07/05 10:03:58;;;;;;;6.20;2.28;;;28.20;99.90;;;;;;5206927;28;20026;-71
2022/07/05 10:06:32;;;;;;;5.07;2.25;;;28.40;99.90;;;;;;5206645;28;20025;-72
2022/07/05 10:09:04;;;;;;;5.00;2.10;;;28.30;99.90;;;;;;5206600;28;20461;-71
2022/07/05 10:11:41;;;;;;;6.18;2.22;;;28.40;99.90;;;;;;5206579;28;20029;-72
2022/07/05 10:14:16;;;;;;;8.82;2.10;;;28.70;99.90;;;;;;5206557;28;20076;-72
2022/07/05 10:16:55;;;;;;;4.15;2.08;;;28.40;99.90;;;;;;5205298;28;20416;-71
2022/07/05 10:19:33;;;;;;;4.15;2.20;;;28.20;99.90;;;;;;5206160;28;20064;-71
2022/07/05 10:22:05;;;;;;;9.00;2.30;;;28.20;99.90;;;;;;5206579;28;20032;-72
2022/07/05 10:24:36;;;;;;;9.05;2.28;;;28.20;99.90;;;;;;5206483;28;20033;-72
2022/07/05 10:27:08;;;;;;;6.50;2.40;;;28.70;99.90;;;;;;5205147;28;20129;-71
2022/07/05 10:29:40;;;;;;;8.65;1.95;;;28.50;99.90;;;;;;5206397;28;20076;-73
2022/07/05 10:32:14;;;;;;;7.25;2.40;;;28.40;99.90;;;;;;5206388;28;20416;-73
2022/07/05 10:34:46;;;;;;;6.35;2.20;;;28.90;99.90;;;;;;5208636;28;20033;-73
2022/07/05 10:37:17;;;;;;;9.07;2.20;;;29.00;99.90;;;;;;5210262;28;20049;-71
2022/07/05 10:39:48;;;;;;;8.77;2.20;;;28.50;99.90;;;;;;5210207;28;20114;-73
2022/07/05 10:42:20;;;;;;;9.48;2.30;;;28.80;99.90;;;;;;5210161;28;20104;-71
2022/07/05 10:44:51;;;;;;;9.20;2.40;;;28.40;99.90;;;;;;5210155;28;20022;-71
2022/07/05 10:47:22;;;;;;;6.40;2.15;;;28.30;99.90;;;;;;5209936;28;20088;-72
2022/07/05 10:50:13;;;;;;;4.22;2.40;;;28.70;99.90;;;;;;5209767;28;20443;-74
2022/07/05 10:53:02;;;;;;;5.40;2.25;;;29.00;99.90;;;;;;5209738;28;20212;-71
2022/07/05 10:55:53;;;;;;;6.57;2.10;;;29.10;99.90;;;;;;5209930;28;20025;-72
2022/07/05 10:58:32;;;;;;;4.85;2.10;;;28.70;99.90;;;;;;5209795;28;20034;-72
2022/07/05 11:01:20;;;;;;;6.50;2.05;;;28.30;99.90;;;;;;5209967;28;20036;-72
2022/07/05 11:04:07;;;;;;;5.38;2.40;;;28.10;99.90;;;;;;5209728;28;20067;-72
2022/07/05 11:06:38;;;;;;;5.80;2.15;;;28.10;99.90;;;;;;5209752;28;20036;-72
2022/07/05 11:09:11;;;;;;;4.18;2.03;;;28.40;99.90;;;;;;5209612;28;20029;-72
2022/07/05 11:11:47;;;;;;;5.97;2.25;;;28.50;99.90;;;;;;5209696;28;20037;-76
2022/07/05 11:14:21;;;;;;;6.28;2.70;;;28.60;99.90;;;;;;5209663;28;20052;-73
2022/07/05 11:17:19;;;;;;;9.18;2.38;;;28.50;99.90;;;;;;5209611;28;20583;-73
2022/07/05 11:19:59;;;;;;;9.07;2.35;;;28.70;99.90;;;;;;5208911;28;20053;-72
2022/07/05 11:22:30;;;;;;;8.45;2.38;;;28.90;99.90;;;;;;5209323;28;20163;-72
2022/07/05 11:25:02;;;;;;;6.78;2.25;;;28.90;99.90;;;;;;5209160;28;20025;-73
2022/07/05 11:27:33;;;;;;;6.80;2.45;;;28.70;99.90;;;;;;5209445;28;20037;-73
2022/07/05 11:30:22;;;;;;;3.75;2.20;;;28.40;99.90;;;;;;5209129;28;20021;-75
2022/07/05 11:32:53;;;;;;;7.45;2.53;;;28.30;99.90;;;;;;5209259;28;20029;-71
2022/07/05 11:35:33;;;;;;;8.70;2.30;;;28.20;99.90;;;;;;5209361;28;20075;-73
2022/07/05 11:38:07;;;;;;;7.03;2.60;;;28.40;99.90;;;;;;5209177;28;20049;-73
2022/07/05 11:40:38;;;;;;;5.22;2.20;;;28.20;99.90;;;;;;5209111;28;20018;-72
2022/07/05 11:43:09;;;;;;;4.88;2.42;;;28.40;99.90;;;;;;5209073;28;20028;-74
2022/07/05 11:45:40;;;;;;;6.07;2.25;;;28.50;99.90;;;;;;5208840;28;20037;-76
2022/07/05 11:48:16;;;;;;;6.47;2.20;;;28.40;99.90;;;;;;5208922;28;20384;-73
2022/07/05 11:50:47;;;;;;;4.07;1.90;;;28.70;99.90;;;;;;5208858;28;20860;-73
2022/07/05 11:53:29;;;;;;;6.22;2.20;;;28.40;99.90;;;;;;5208730;28;20111;-73
2022/07/05 11:56:00;;;;;;;6.53;2.15;;;28.60;99.90;;;;;;5208956;28;20079;-73
2022/07/05 11:58:32;;;;;;;6.97;2.60;;;28.50;99.90;;;;;;5207326;28;20072;-75
2022/07/05 12:01:05;;;;;;;4.38;2.20;;;28.40;99.90;;;;;;5208642;28;20049;-72
2022/07/05 12:03:36;;;;;;;6.88;2.40;;;28.10;99.90;;;;;;5208690;28;20029;-72
2022/07/05 12:06:14;;;;;;;4.45;2.15;;;28.70;99.90;;;;;;5208599;28;20129;-74
2022/07/05 12:08:44;;;;;;;8.38;2.30;;;28.70;99.90;;;;;;5208293;28;20037;-71
2022/07/05 12:14:05;;;;;;;7.55;2.00;;;28.90;99.90;;;;;;5208523;28;20481;-72
2022/07/05 12:16:36;;;;;;;12.57;2.28;;;28.80;99.90;;;;;;5208316;28;20036;-72
2022/07/05 12:19:07;;;;;;;6.85;2.40;;;28.60;99.90;;;;;;5206502;28;20062;-72
2022/07/05 12:21:38;;;;;;;5.45;2.33;;;28.90;99.90;;;;;;5208440;28;20037;-73
2022/07/05 12:24:13;;;;;;;7.22;2.28;;;28.50;99.90;;;;;;5208092;28;20022;-73
2022/07/05 12:26:44;;;;;;;3.92;2.17;;;28.50;99.90;;;;;;5208128;28;20029;-73
2022/07/05 12:29:16;;;;;;;8.30;2.05;;;29.00;99.90;;;;;;5208004;28;20032;-74
2022/07/05 12:32:08;;;;;;;4.90;2.17;;;28.80;99.90;;;;;;5208024;28;20025;-71
2022/07/05 12:34:39;;;;;;;4.63;2.50;;;28.70;99.90;;;;;;5208147;28;20030;-72
2022/07/05 12:37:10;;;;;;;6.35;2.40;;;28.80;99.90;;;;;;5208048;28;20037;-72
2022/07/05 12:39:41;;;;;;;8.45;2.15;;;28.60;99.90;;;;;;5207814;28;20476;-72
2022/07/05 12:42:32;;;;;;;12.05;2.40;;;28.70;99.90;;;;;;5207921;28;20017;-73
2022/07/05 12:45:23;;;;;;;7.13;2.40;;;28.20;99.90;;;;;;5207781;28;20037;-74
2022/07/05 12:47:55;;;;;;;6.90;2.20;;;28.00;99.90;;;;;;5207789;28;20065;-73
2022/07/05 12:50:43;;;;;;;6.00;2.40;;;28.40;99.90;;;;;;5207508;28;20388;-71
2022/07/05 12:59:00;;;;;;;9.38;2.28;;;28.60;99.90;;;;;;5207748;28;20091;-72
2022/07/05 13:01:36;;;;;;;6.32;2.00;;;28.40;99.90;;;;;;5207499;28;20022;-73
2022/07/05 13:04:15;;;;;;;4.57;2.15;;;28.20;99.90;;;;;;5207519;28;20346;-73
2022/07/05 13:06:55;;;;;;;7.30;2.20;;;28.30;99.90;;;;;;5207416;28;20065;-72
2022/07/05 13:09:32;;;;;;;10.48;2.50;;;28.70;99.90;;;;;;5207303;28;20330;-71
2022/07/05 13:12:14;;;;;;;4.78;2.20;;;28.60;99.90;;;;;;5207392;28;20036;-73
2022/07/05 13:14:47;;;;;;;7.55;2.20;;;28.40;99.90;;;;;;5207099;28;20100;-73
2022/07/05 13:17:22;;;;;;;4.47;2.50;;;28.40;99.90;;;;;;5206131;28;20021;-74
2022/07/05 13:19:54;;;;;;;8.82;2.53;;;28.10;99.90;;;;;;5206837;28;20080;-71
2022/07/05 13:22:24;;;;;;;10.63;2.17;;;28.80;99.90;;;;;;5207249;28;20041;-73
2022/07/05 13:24:55;;;;;;;7.05;2.10;;;28.30;99.90;;;;;;5206935;28;20028;-72
2022/07/05 13:27:26;;;;;;;4.50;2.33;;;28.40;99.90;;;;;;5207027;28;20029;-71
2022/07/05 13:29:57;;;;;;;5.75;2.25;;;28.80;99.90;;;;;;5207119;28;20061;-71
2022/07/05 13:32:28;;;;;;;8.55;2.28;;;28.30;99.90;;;;;;5207019;28;20037;-73
2022/07/05 13:34:59;;;;;;;5.40;2.42;;;28.70;99.90;;;;;;5207199;28;20025;-71
2022/07/05 13:37:30;;;;;;;6.68;2.53;;;28.00;99.90;;;;;;5206885;28;20108;-74
2022/07/05 13:40:01;;;;;;;2.60;2.00;;;28.00;99.90;;;;;;5206958;28;20025;-75
2022/07/05 13:42:31;;;;;;;6.65;2.20;;;27.40;99.90;;;;;;5206885;28;20481;-71